createdAt,value
2023-08-21T00:01:32.803Z,71.30
2023-08-21T00:04:00.435Z,71.80
2023-08-21T00:06:28.233Z,72.30
2023-08-21T00:08:55.907Z,72.40
2023-08-21T00:11:23.525Z,72.50
2023-08-21T00:13:51.105Z,72.60
2023-08-21T00:16:19.043Z,72.50
2023-08-21T00:18:46.881Z,73.60
2023-08-21T00:21:14.734Z,72.50
2023-08-21T00:23:42.275Z,72.50
2023-08-21T00:26:09.832Z,72.80
2023-08-21T00:28:37.567Z,73.00
2023-08-21T00:31:06.321Z,73.10
2023-08-21T00:33:34.599Z,73.10
2023-08-21T00:36:02.546Z,73.30
2023-08-21T00:38:30.158Z,73.30
2023-08-21T00:40:58.549Z,73.60
2023-08-21T00:43:26.140Z,73.70
2023-08-21T00:45:54.123Z,73.50
2023-08-21T00:48:22.314Z,73.10
2023-08-21T00:50:50.902Z,73.10
2023-08-21T00:53:18.940Z,73.00
2023-08-21T00:55:46.706Z,73.00
2023-08-21T00:58:14.949Z,72.90
2023-08-21T01:00:48.421Z,72.70
2023-08-21T01:03:16.297Z,73.00
2023-08-21T01:05:44.049Z,73.30
2023-08-21T01:08:30.370Z,73.70
2023-08-21T01:11:15.558Z,74.00
2023-08-21T01:14:28.808Z,74.00
2023-08-21T01:17:04.263Z,74.20
2023-08-21T01:19:42.654Z,73.60
2023-08-21T01:22:10.531Z,73.00
2023-08-21T01:24:38.234Z,72.70
2023-08-21T01:27:05.909Z,72.90
2023-08-21T01:29:34.883Z,73.60
2023-08-21T01:32:33.915Z,73.80
2023-08-21T01:35:02.586Z,74.40
2023-08-21T01:37:31.717Z,74.20
2023-08-21T01:39:59.794Z,74.10
2023-08-21T01:42:27.399Z,74.20
2023-08-21T01:44:55.645Z,74.70
2023-08-21T01:47:23.236Z,75.10
2023-08-21T01:49:53.294Z,75.00
2023-08-21T01:52:20.987Z,75.20
2023-08-21T01:54:51.758Z,75.30
2023-08-21T01:57:19.861Z,75.60
2023-08-21T01:59:47.727Z,75.30
2023-08-21T02:02:16.359Z,75.60
2023-08-21T02:04:44.853Z,76.10
2023-08-21T02:07:12.513Z,76.50
2023-08-21T02:09:40.142Z,76.50
2023-08-21T02:12:07.903Z,76.50
2023-08-21T02:14:35.489Z,76.50
2023-08-21T02:17:03.578Z,76.40
2023-08-21T02:19:31.215Z,76.70
2023-08-21T02:21:59.486Z,76.90
2023-08-21T02:24:27.069Z,77.20
2023-08-21T02:26:54.628Z,77.30
2023-08-21T02:29:22.219Z,77.60
2023-08-21T02:31:49.811Z,77.80
2023-08-21T02:34:17.392Z,78.30
2023-08-21T02:36:47.972Z,78.50
2023-08-21T02:39:15.650Z,78.30
2023-08-21T02:41:43.237Z,78.00
2023-08-21T02:44:10.826Z,77.90
2023-08-21T02:46:38.410Z,78.50
2023-08-21T02:49:06.238Z,78.50
2023-08-21T02:51:33.772Z,79.00
2023-08-21T02:54:01.345Z,79.20
2023-08-21T02:56:30.175Z,79.30
2023-08-21T02:58:57.776Z,79.60
2023-08-21T03:01:25.930Z,79.60
2023-08-21T03:03:53.508Z,79.70
2023-08-21T03:06:21.785Z,79.90
2023-08-21T03:08:49.333Z,79.90
2023-08-21T03:11:16.875Z,79.70
2023-08-21T03:13:44.470Z,79.60
2023-08-21T03:16:12.123Z,80.50
2023-08-21T03:19:00.184Z,80.00
2023-08-21T03:21:29.694Z,80.50
2023-08-21T03:24:04.800Z,80.00
2023-08-21T03:26:33.355Z,79.80
2023-08-21T03:29:01.741Z,79.60
2023-08-21T03:31:30.699Z,79.70
2023-08-21T03:33:58.507Z,80.20
2023-08-21T03:36:31.981Z,80.20
2023-08-21T03:39:02.199Z,80.00
2023-08-21T03:41:31.472Z,80.10
2023-08-21T03:43:59.040Z,80.10
2023-08-21T03:46:26.791Z,80.40
2023-08-21T03:48:56.544Z,80.30
2023-08-21T03:51:24.211Z,80.50
2023-08-21T03:53:52.080Z,80.80
2023-08-21T03:56:20.353Z,80.70
2023-08-21T03:58:49.301Z,80.50
2023-08-21T04:01:17.063Z,80.10
2023-08-21T04:03:44.884Z,80.10
2023-08-21T04:06:13.977Z,80.20
2023-08-21T04:08:41.551Z,80.00
2023-08-21T04:11:10.523Z,80.00
2023-08-21T04:13:38.151Z,80.10
2023-08-21T04:16:06.385Z,80.20
2023-08-21T04:18:41.909Z,80.10
2023-08-21T04:21:11.074Z,80.10
2023-08-21T04:23:38.768Z,80.30
2023-08-21T04:26:06.460Z,80.50
2023-08-21T04:28:35.124Z,80.30
2023-08-21T04:31:08.285Z,80.20
2023-08-21T04:33:36.793Z,80.50
2023-08-21T04:36:05.690Z,80.40
2023-08-21T04:38:33.249Z,80.40
2023-08-21T04:41:08.945Z,80.60
2023-08-21T04:43:38.894Z,81.10
2023-08-21T04:46:08.453Z,81.00
2023-08-21T04:48:38.183Z,81.00
2023-08-21T04:51:05.782Z,81.00
2023-08-21T04:53:33.606Z,81.20
2023-08-21T04:56:01.475Z,80.90
2023-08-21T04:58:30.915Z,80.90
2023-08-21T05:01:00.437Z,80.80
2023-08-21T05:03:28.248Z,81.70
2023-08-21T05:05:57.512Z,80.80
2023-08-21T05:08:27.149Z,81.10
2023-08-21T05:10:59.796Z,81.00
2023-08-21T05:13:30.034Z,81.00
2023-08-21T05:15:59.388Z,80.90
2023-08-21T05:18:30.889Z,81.00
2023-08-21T05:20:58.832Z,81.60
2023-08-21T05:23:27.088Z,81.60
2023-08-21T05:26:00.290Z,81.80
2023-08-21T05:28:27.879Z,81.70
2023-08-21T05:30:55.545Z,81.40
2023-08-21T05:33:23.716Z,81.20
2023-08-21T05:35:52.375Z,81.10
2023-08-21T05:38:21.077Z,81.00
2023-08-21T05:40:49.896Z,81.00
2023-08-21T05:43:18.137Z,80.90
2023-08-21T05:45:45.741Z,80.90
2023-08-21T05:48:14.850Z,80.60
2023-08-21T05:50:43.220Z,80.60
2023-08-21T05:53:10.974Z,80.60
2023-08-21T05:55:38.910Z,80.10
2023-08-21T05:58:06.581Z,79.90
2023-08-21T06:00:36.090Z,79.80
2023-08-21T06:03:05.642Z,79.00
2023-08-21T06:05:50.881Z,78.50
2023-08-21T06:08:19.386Z,78.10
2023-08-21T06:10:52.210Z,78.10
2023-08-21T06:13:20.280Z,78.20
2023-08-21T06:15:51.002Z,77.60
2023-08-21T06:18:20.927Z,77.50
2023-08-21T06:20:54.347Z,77.10
2023-08-21T06:23:22.445Z,76.80
2023-08-21T06:25:50.699Z,76.70
2023-08-21T06:28:20.126Z,76.60
2023-08-21T06:30:47.726Z,76.40
2023-08-21T06:33:15.487Z,76.30
2023-08-21T06:35:43.145Z,76.40
2023-08-21T06:38:10.757Z,76.20
2023-08-21T06:40:38.975Z,76.60
2023-08-21T06:43:07.149Z,76.50
2023-08-21T06:45:36.061Z,76.20
2023-08-21T06:48:05.673Z,76.20
2023-08-21T06:50:33.259Z,75.90
2023-08-21T06:53:00.902Z,75.40
2023-08-21T06:55:28.527Z,75.10
2023-08-21T06:57:56.248Z,74.70
2023-08-21T07:00:23.819Z,74.90
2023-08-21T07:02:51.416Z,74.80
2023-08-21T07:05:18.976Z,74.60
2023-08-21T07:07:46.576Z,74.20
2023-08-21T07:10:14.168Z,74.00
2023-08-21T07:12:41.726Z,73.80
2023-08-21T07:15:10.053Z,74.70
2023-08-21T07:17:37.604Z,75.50
2023-08-21T07:20:06.158Z,75.50
2023-08-21T07:22:33.953Z,75.40
2023-08-21T07:25:04.864Z,75.80
2023-08-21T07:27:33.440Z,76.50
2023-08-21T07:30:01.082Z,76.50
2023-08-21T07:32:28.681Z,76.20
2023-08-21T07:34:56.319Z,76.80
2023-08-21T07:37:23.989Z,76.80
2023-08-21T07:39:51.837Z,77.30
2023-08-21T07:42:19.423Z,77.70
2023-08-21T07:44:47.207Z,77.30
2023-08-21T07:47:14.972Z,77.60
2023-08-21T07:49:42.507Z,77.00
2023-08-21T07:52:10.118Z,77.00
2023-08-21T07:54:37.677Z,76.20
2023-08-21T07:57:05.417Z,76.20
2023-08-21T07:59:33.322Z,75.50
2023-08-21T08:02:01.723Z,75.10
2023-08-21T08:04:29.396Z,75.50
2023-08-21T08:06:57.003Z,74.10
2023-08-21T08:09:24.602Z,74.50
2023-08-21T08:11:52.233Z,74.00
2023-08-21T08:14:19.881Z,74.10
2023-08-21T08:16:47.524Z,73.70
2023-08-21T08:19:15.132Z,71.50
2023-08-21T08:21:42.686Z,71.50
2023-08-21T08:24:10.310Z,71.90
2023-08-21T08:26:37.929Z,71.80
2023-08-21T08:29:06.187Z,71.90
2023-08-21T08:31:33.875Z,72.00
2023-08-21T08:34:02.284Z,71.20
2023-08-21T08:36:29.859Z,71.40
2023-08-21T08:38:57.688Z,71.00
2023-08-21T08:42:06.477Z,71.70
2023-08-21T08:44:37.208Z,70.50
2023-08-21T08:47:05.326Z,70.40
2023-08-21T08:49:33.066Z,69.80
2023-08-21T08:52:02.142Z,70.50
2023-08-21T08:54:31.900Z,70.30
2023-08-21T08:56:59.758Z,70.60
2023-08-21T08:59:28.745Z,70.50
2023-08-21T09:01:56.366Z,70.10
2023-08-21T09:04:24.202Z,70.10
2023-08-21T09:06:51.837Z,69.70
2023-08-21T09:09:19.632Z,69.30
2023-08-21T09:11:48.733Z,69.40
2023-08-21T09:14:16.274Z,69.10
2023-08-21T09:17:04.724Z,68.60
2023-08-21T09:19:32.998Z,66.80
2023-08-21T09:22:12.437Z,67.90
2023-08-21T09:25:07.719Z,68.10
2023-08-21T09:27:37.474Z,67.80
2023-08-21T09:30:15.805Z,67.70
2023-08-21T09:33:06.001Z,66.60
2023-08-21T09:35:34.917Z,66.10
2023-08-21T09:38:02.947Z,66.40
2023-08-21T09:40:30.612Z,65.10
2023-08-21T09:42:58.243Z,65.10
2023-08-21T09:45:28.739Z,66.10
2023-08-21T09:47:57.491Z,64.90
2023-08-21T09:50:25.912Z,63.40
2023-08-21T09:52:54.607Z,64.60
2023-08-21T09:55:23.199Z,65.10
2023-08-21T09:57:59.362Z,63.80
2023-08-21T10:00:41.464Z,63.30
2023-08-21T10:03:12.268Z,62.10
2023-08-21T10:05:41.085Z,59.50
2023-08-21T10:08:10.046Z,60.70
2023-08-21T10:10:39.996Z,60.30
2023-08-21T10:13:10.162Z,60.30
2023-08-21T10:15:39.305Z,60.40
2023-08-21T10:18:31.950Z,61.10
2023-08-21T10:21:21.536Z,60.10
2023-08-21T10:23:56.016Z,60.70
2023-08-21T10:26:26.798Z,58.90
2023-08-21T10:29:07.818Z,59.80
2023-08-21T10:31:44.476Z,59.40
2023-08-21T10:34:14.621Z,59.80
2023-08-21T10:36:45.589Z,59.90
2023-08-21T10:39:25.867Z,59.10
2023-08-21T10:41:59.347Z,59.50
2023-08-21T10:44:54.251Z,59.90
2023-08-21T10:47:33.002Z,59.50
2023-08-21T10:50:04.612Z,59.60
2023-08-21T10:52:38.905Z,59.60
2023-08-21T10:55:07.414Z,58.90
2023-08-21T10:57:35.306Z,58.50
2023-08-21T11:00:10.663Z,58.90
2023-08-21T11:02:44.662Z,58.90
2023-08-21T11:05:14.252Z,56.80
2023-08-21T11:07:47.640Z,57.40
2023-08-21T11:10:23.018Z,57.60
2023-08-21T11:12:58.605Z,57.20
2023-08-21T11:15:28.576Z,56.20
2023-08-21T11:18:02.638Z,57.40
2023-08-21T11:20:35.819Z,57.00
2023-08-21T11:23:08.016Z,57.10
2023-08-21T11:25:40.387Z,55.70
2023-08-21T11:28:09.178Z,56.10
2023-08-21T11:30:37.507Z,56.70
2023-08-21T11:33:13.828Z,56.20
2023-08-21T11:35:42.728Z,55.90
2023-08-21T11:38:25.932Z,55.20
2023-08-21T11:41:03.759Z,55.20
2023-08-21T11:43:40.714Z,55.30
2023-08-21T11:46:11.788Z,55.10
2023-08-21T11:48:41.822Z,56.30
2023-08-21T11:51:09.982Z,56.10
2023-08-21T11:53:42.972Z,56.00
2023-08-21T11:56:18.146Z,54.20
2023-08-21T11:58:47.747Z,53.60
2023-08-21T12:01:20.214Z,54.60
2023-08-21T12:03:55.330Z,54.20
2023-08-21T12:06:23.987Z,54.70
2023-08-21T12:08:51.548Z,55.30
2023-08-21T12:11:19.372Z,54.70
2023-08-21T12:13:46.959Z,54.50
2023-08-21T12:16:14.655Z,54.30
2023-08-21T12:18:42.363Z,55.60
2023-08-21T12:21:09.963Z,54.00
2023-08-21T12:23:37.540Z,51.60
2023-08-21T12:26:05.341Z,51.50
2023-08-21T12:28:32.946Z,51.00
2023-08-21T12:31:00.499Z,50.30
2023-08-21T12:33:28.296Z,50.50
2023-08-21T12:35:55.892Z,50.40
2023-08-21T12:38:25.008Z,50.40
2023-08-21T12:40:52.749Z,48.10
2023-08-21T12:43:20.455Z,50.20
2023-08-21T12:45:48.529Z,50.10
2023-08-21T12:48:16.316Z,48.60
2023-08-21T12:50:43.992Z,47.70
2023-08-21T12:53:11.855Z,48.30
2023-08-21T12:55:39.505Z,48.50
2023-08-21T12:58:07.135Z,47.10
2023-08-21T13:00:34.976Z,47.20
2023-08-21T13:03:02.919Z,46.80
2023-08-21T13:05:30.601Z,46.60
2023-08-21T13:07:58.658Z,47.00
2023-08-21T13:10:26.247Z,47.60
2023-08-21T13:12:53.923Z,47.60
2023-08-21T13:15:21.486Z,46.90
2023-08-21T13:17:49.565Z,47.50
2023-08-21T13:20:17.292Z,48.00
2023-08-21T13:22:52.994Z,47.80
2023-08-21T13:25:23.727Z,47.40
2023-08-21T13:27:53.140Z,47.70
2023-08-21T13:30:21.540Z,47.90
2023-08-21T13:32:49.714Z,48.10
2023-08-21T13:35:17.926Z,48.50
2023-08-21T13:37:45.550Z,48.50
2023-08-21T13:40:15.154Z,48.00
2023-08-21T13:42:45.216Z,48.30
2023-08-21T13:45:16.091Z,48.30
2023-08-21T13:47:49.552Z,48.80
2023-08-21T13:50:19.428Z,48.10
2023-08-21T13:52:48.669Z,47.30
2023-08-21T13:55:16.954Z,47.20
2023-08-21T13:57:45.853Z,47.80
2023-08-21T14:00:14.213Z,46.90
2023-08-21T14:02:42.910Z,44.10
2023-08-21T14:05:12.319Z,45.10
2023-08-21T14:07:41.455Z,45.00
2023-08-21T14:10:10.414Z,45.50
2023-08-21T14:12:41.600Z,45.10
2023-08-21T14:15:11.416Z,44.70
2023-08-21T14:17:39.600Z,44.10
2023-08-21T14:20:08.550Z,43.90
2023-08-21T14:22:36.142Z,43.50
2023-08-21T14:25:07.801Z,43.70
2023-08-21T14:27:35.795Z,42.90
2023-08-21T14:30:07.218Z,43.40
2023-08-21T14:32:37.947Z,42.80
2023-08-21T14:35:10.142Z,43.10
2023-08-21T14:37:39.429Z,43.10
2023-08-21T14:40:11.320Z,42.80
2023-08-21T14:42:40.468Z,42.50
2023-08-21T14:45:08.891Z,41.10
2023-08-21T14:47:51.797Z,41.70
2023-08-21T14:50:19.494Z,40.70
2023-08-21T14:52:49.051Z,42.00
2023-08-21T14:55:16.780Z,42.20
2023-08-21T14:57:44.337Z,41.80
2023-08-21T15:00:13.525Z,40.50
2023-08-21T15:02:41.582Z,40.90
2023-08-21T15:05:10.391Z,40.90
2023-08-21T15:07:38.241Z,40.20
2023-08-21T15:10:11.905Z,40.60
2023-08-21T15:12:39.745Z,40.20
2023-08-21T15:15:08.068Z,39.50
2023-08-21T15:17:35.704Z,40.30
2023-08-21T15:20:05.826Z,41.10
2023-08-21T15:22:33.992Z,41.00
2023-08-21T15:25:01.572Z,40.70
2023-08-21T15:27:29.207Z,41.00
2023-08-21T15:29:56.836Z,40.60
2023-08-21T15:32:24.446Z,42.00
2023-08-21T15:34:52.010Z,41.50
2023-08-21T15:37:19.594Z,42.10
2023-08-21T15:39:47.157Z,41.40
2023-08-21T15:42:14.747Z,41.30
2023-08-21T15:44:42.398Z,40.80
2023-08-21T15:47:40.646Z,40.30
2023-08-21T15:49:57.505Z,40.10
2023-08-21T15:52:25.086Z,40.60
2023-08-21T15:54:53.000Z,40.40
2023-08-21T15:57:20.680Z,40.70
2023-08-21T15:59:49.334Z,41.40
2023-08-21T16:02:17.025Z,41.30
2023-08-21T16:04:44.990Z,41.00
2023-08-21T16:07:12.697Z,40.30
2023-08-21T16:09:40.310Z,41.40
2023-08-21T16:12:08.078Z,40.70
2023-08-21T16:15:01.517Z,41.00
2023-08-21T16:17:29.384Z,39.90
2023-08-21T16:19:57.177Z,40.30
2023-08-21T16:22:24.888Z,40.80
2023-08-21T16:24:52.421Z,41.20
2023-08-21T16:27:19.994Z,41.00
2023-08-21T16:29:47.684Z,41.70
2023-08-21T16:32:15.248Z,41.80
2023-08-21T16:34:42.785Z,41.60
2023-08-21T16:37:10.449Z,42.10
2023-08-21T16:39:38.017Z,42.30
2023-08-21T16:42:06.070Z,41.90
2023-08-21T16:44:34.923Z,42.70
2023-08-21T16:47:02.586Z,42.80
2023-08-21T16:49:30.364Z,42.40
2023-08-21T16:51:57.905Z,42.80
2023-08-21T16:54:25.521Z,42.10
2023-08-21T16:56:53.124Z,42.80
2023-08-21T16:59:20.731Z,42.90
2023-08-21T17:01:48.296Z,43.20
2023-08-21T17:04:15.928Z,43.30
2023-08-21T17:06:43.534Z,43.70
2023-08-21T17:09:12.564Z,44.60
2023-08-21T17:11:40.285Z,44.10
2023-08-21T17:14:07.897Z,44.50
2023-08-21T17:16:36.630Z,44.50
2023-08-21T17:19:04.284Z,45.20
2023-08-21T17:21:31.968Z,45.00
2023-08-21T17:23:59.606Z,45.00
2023-08-21T17:26:27.162Z,45.30
2023-08-21T17:28:54.975Z,45.00
2023-08-21T17:31:22.740Z,44.70
2023-08-21T17:33:50.545Z,45.10
2023-08-21T17:36:19.439Z,45.40
2023-08-21T17:38:46.993Z,45.60
2023-08-21T17:41:14.529Z,45.60
2023-08-21T17:43:42.121Z,45.70
2023-08-21T17:46:09.917Z,45.80
2023-08-21T17:48:37.524Z,46.10
2023-08-21T17:51:06.944Z,46.60
2023-08-21T17:53:34.604Z,46.40
2023-08-21T17:56:02.347Z,46.70
2023-08-21T17:58:30.078Z,47.00
2023-08-21T18:00:58.725Z,47.00
2023-08-21T18:03:27.240Z,47.50
2023-08-21T18:05:54.809Z,47.60
2023-08-21T18:08:22.762Z,47.60
2023-08-21T18:10:52.225Z,48.10
2023-08-21T18:13:20.167Z,47.40
2023-08-21T18:15:51.858Z,47.70
2023-08-21T18:18:19.495Z,48.10
2023-08-21T18:20:52.909Z,48.50
2023-08-21T18:23:26.541Z,49.30
2023-08-21T18:25:54.928Z,49.60
2023-08-21T18:28:25.277Z,49.10
2023-08-21T18:30:57.641Z,49.60
2023-08-21T18:33:26.526Z,51.10
2023-08-21T18:35:55.981Z,51.70
2023-08-21T18:38:23.626Z,52.20
2023-08-21T18:40:51.741Z,52.70
2023-08-21T18:43:21.020Z,53.00
2023-08-21T18:45:49.906Z,53.20
2023-08-21T18:48:18.310Z,53.40
2023-08-21T18:50:46.500Z,54.00
2023-08-21T18:53:17.710Z,53.30
2023-08-21T18:55:49.925Z,53.00
2023-08-21T18:58:17.896Z,54.10
2023-08-21T19:00:45.522Z,54.30
2023-08-21T19:03:13.750Z,54.70
2023-08-21T19:05:41.598Z,54.90
2023-08-21T19:08:09.493Z,55.30
2023-08-21T19:10:37.143Z,55.60
2023-08-21T19:13:06.861Z,55.70
2023-08-21T19:15:35.532Z,55.50
2023-08-21T19:18:06.539Z,55.80
2023-08-21T19:20:34.302Z,56.50
2023-08-21T19:23:01.994Z,55.80
2023-08-21T19:25:30.045Z,55.80
2023-08-21T19:27:58.338Z,55.50
2023-08-21T19:30:26.213Z,56.00
2023-08-21T19:32:53.848Z,56.30
2023-08-21T19:35:21.521Z,56.60
2023-08-21T19:37:49.092Z,56.50
2023-08-21T19:40:16.870Z,56.60
2023-08-21T19:42:44.436Z,56.60
2023-08-21T19:45:12.252Z,56.80
2023-08-21T19:47:40.148Z,56.90
2023-08-21T19:50:08.829Z,57.00
2023-08-21T19:52:36.524Z,57.30
2023-08-21T19:55:04.391Z,57.30
2023-08-21T19:57:32.013Z,57.10
2023-08-21T19:59:59.562Z,58.10
2023-08-21T20:02:27.221Z,57.80
2023-08-21T20:04:54.891Z,58.00
2023-08-21T20:07:22.477Z,58.00
2023-08-21T20:09:50.028Z,58.10
2023-08-21T20:12:17.664Z,58.70
2023-08-21T20:14:45.534Z,58.80
2023-08-21T20:17:13.101Z,58.50
2023-08-21T20:19:40.636Z,58.50
2023-08-21T20:22:08.529Z,58.60
2023-08-21T20:24:36.082Z,58.80
2023-08-21T20:27:04.109Z,58.80
2023-08-21T20:29:31.628Z,59.60
2023-08-21T20:31:59.383Z,59.20
2023-08-21T20:34:27.008Z,59.10
2023-08-21T20:36:54.568Z,59.20
2023-08-21T20:39:22.160Z,59.20
2023-08-21T20:41:49.733Z,59.30
2023-08-21T20:44:17.470Z,59.30
2023-08-21T20:46:45.058Z,59.30
2023-08-21T20:49:12.675Z,59.40
2023-08-21T20:51:40.480Z,59.70
2023-08-21T20:54:08.031Z,59.60
2023-08-21T20:56:35.653Z,60.00
2023-08-21T20:59:03.242Z,60.10
2023-08-21T21:01:30.790Z,60.30
2023-08-21T21:03:58.461Z,60.50
2023-08-21T21:06:26.796Z,60.70
2023-08-21T21:08:55.150Z,61.10
2023-08-21T21:11:22.739Z,61.30
2023-08-21T21:13:50.383Z,61.10
2023-08-21T21:16:18.007Z,61.20
2023-08-21T21:18:45.760Z,61.80
2023-08-21T21:21:13.372Z,62.20
2023-08-21T21:23:40.940Z,62.60
2023-08-21T21:26:08.522Z,62.60
2023-08-21T21:28:36.140Z,62.70
2023-08-21T21:31:03.858Z,62.60
2023-08-21T21:33:31.438Z,62.80
2023-08-21T21:35:59.709Z,62.80
2023-08-21T21:38:28.057Z,62.60
2023-08-21T21:40:59.391Z,62.60
2023-08-21T21:43:27.029Z,63.00
2023-08-21T21:45:59.730Z,63.20
2023-08-21T21:48:28.592Z,63.60
2023-08-21T21:50:56.157Z,63.20
2023-08-21T21:53:28.789Z,63.20
2023-08-21T21:55:56.383Z,63.70
2023-08-21T21:58:27.628Z,63.30
2023-08-21T22:00:56.737Z,63.10
2023-08-21T22:03:24.504Z,62.70
2023-08-21T22:05:52.096Z,62.90
2023-08-21T22:08:19.664Z,62.50
2023-08-21T22:10:47.492Z,62.50
2023-08-21T22:13:15.329Z,62.60
2023-08-21T22:15:42.858Z,62.50
2023-08-21T22:18:10.475Z,62.70
2023-08-21T22:20:38.876Z,62.80
2023-08-21T22:23:08.637Z,62.90
2023-08-21T22:25:36.265Z,63.20
2023-08-21T22:28:04.128Z,63.70
2023-08-21T22:30:31.759Z,63.70
2023-08-21T22:32:59.659Z,63.90
2023-08-21T22:35:27.277Z,64.20
2023-08-21T22:37:54.851Z,64.30
2023-08-21T22:40:29.485Z,64.70
2023-08-21T22:42:57.953Z,65.20
2023-08-21T22:45:25.716Z,65.70
2023-08-21T22:47:53.358Z,66.40
2023-08-21T22:50:21.001Z,66.60
2023-08-21T22:52:48.888Z,66.30
2023-08-21T22:55:16.544Z,66.40
2023-08-21T22:57:48.260Z,66.40
2023-08-21T23:00:17.156Z,66.30
2023-08-21T23:02:44.947Z,66.40
2023-08-21T23:05:12.544Z,66.40
2023-08-21T23:07:40.319Z,66.40
2023-08-21T23:10:08.452Z,66.60
2023-08-21T23:12:36.096Z,66.80
2023-08-21T23:15:04.158Z,67.00
2023-08-21T23:17:31.741Z,66.40
2023-08-21T23:19:59.367Z,66.70
2023-08-21T23:22:26.940Z,67.20
2023-08-21T23:24:54.534Z,67.10
2023-08-21T23:27:22.103Z,67.00
2023-08-21T23:29:50.458Z,67.30
2023-08-21T23:32:20.032Z,67.80
2023-08-21T23:34:47.595Z,67.90
2023-08-21T23:37:15.360Z,68.30
2023-08-21T23:39:42.947Z,68.50
2023-08-21T23:42:10.812Z,68.30
2023-08-21T23:44:38.347Z,68.70
2023-08-21T23:47:06.075Z,68.80
2023-08-21T23:49:33.642Z,69.10
2023-08-21T23:52:01.378Z,69.10
2023-08-21T23:54:28.916Z,69.10
2023-08-21T23:56:56.591Z,69.00
2023-08-21T23:59:24.194Z,69.00
